createdAt,value
2017-06-11T00:00:07.149Z,12.73
2017-06-11T00:02:35.330Z,11.97
2017-06-11T00:05:03.487Z,12.20
2017-06-11T00:07:31.612Z,12.77
2017-06-11T00:09:59.733Z,13.73
2017-06-11T00:12:27.839Z,12.90
2017-06-11T00:14:55.950Z,12.67
2017-06-11T00:17:24.078Z,12.07
2017-06-11T00:19:52.220Z,11.70
2017-06-11T00:22:20.367Z,11.07
2017-06-11T00:24:48.455Z,11.60
2017-06-11T00:27:16.590Z,11.70
2017-06-11T00:29:44.713Z,11.77
2017-06-11T00:32:12.824Z,12.70
2017-06-11T00:34:41.746Z,11.37
2017-06-11T00:37:10.033Z,10.97
2017-06-11T00:39:38.175Z,10.97
2017-06-11T00:42:06.313Z,10.93
2017-06-11T00:44:34.425Z,11.90
2017-06-11T00:47:02.525Z,10.83
2017-06-11T00:49:30.663Z,10.83
2017-06-11T00:51:59.631Z,11.80
2017-06-11T00:54:27.749Z,11.70
2017-06-11T00:56:55.873Z,10.37
2017-06-11T00:59:29.402Z,11.07
2017-06-11T01:01:57.527Z,10.10
2017-06-11T01:04:25.637Z,11.33
2017-06-11T01:06:53.720Z,9.93
2017-06-11T01:09:21.833Z,10.10
2017-06-11T01:11:50.042Z,11.47
2017-06-11T01:14:18.150Z,9.90
2017-06-11T01:16:46.245Z,10.20
2017-06-11T01:19:14.382Z,9.80
2017-06-11T01:21:42.538Z,10.53
2017-06-11T01:24:10.672Z,10.33
2017-06-11T01:26:38.791Z,10.30
2017-06-11T01:29:06.915Z,10.20
2017-06-11T01:31:35.027Z,10.13
2017-06-11T01:34:03.164Z,10.50
2017-06-11T01:36:31.278Z,10.33
2017-06-11T01:38:59.429Z,11.20
2017-06-11T01:41:27.515Z,9.90
2017-06-11T01:43:55.637Z,10.87
2017-06-11T01:46:23.759Z,9.73
2017-06-11T01:48:51.876Z,9.20
2017-06-11T01:51:20.000Z,9.17
2017-06-11T01:53:48.128Z,10.13
2017-06-11T01:56:16.242Z,10.13
2017-06-11T01:58:44.359Z,9.93
2017-06-11T02:01:12.478Z,10.50
2017-06-11T02:03:40.578Z,8.97
2017-06-11T02:06:08.703Z,9.17
2017-06-11T02:08:36.807Z,8.97
2017-06-11T02:11:04.931Z,8.97
2017-06-11T02:13:33.043Z,9.10
2017-06-11T02:16:01.156Z,8.90
2017-06-11T02:18:29.291Z,9.90
2017-06-11T02:20:57.431Z,9.87
2017-06-11T02:23:25.544Z,9.50
2017-06-11T02:25:53.643Z,9.40
2017-06-11T02:28:21.786Z,9.17
2017-06-11T02:30:49.909Z,9.40
2017-06-11T02:33:18.030Z,9.20
2017-06-11T02:35:46.155Z,8.00
2017-06-11T02:38:14.275Z,8.80
2017-06-11T02:40:42.435Z,8.73
2017-06-11T02:43:12.474Z,7.70
2017-06-11T02:45:40.667Z,8.30
2017-06-11T02:48:08.771Z,7.67
2017-06-11T02:50:36.886Z,7.53
2017-06-11T02:53:04.984Z,8.37
2017-06-11T02:55:33.133Z,7.37
2017-06-11T02:58:01.229Z,8.23
2017-06-11T03:00:29.353Z,7.70
2017-06-11T03:02:57.462Z,7.67
2017-06-11T03:05:25.586Z,7.07
2017-06-11T03:07:53.691Z,8.00
2017-06-11T03:10:21.795Z,7.63
2017-06-11T03:12:49.909Z,7.53
2017-06-11T03:15:18.010Z,8.50
2017-06-11T03:17:46.151Z,7.80
2017-06-11T03:20:14.236Z,7.47
2017-06-11T03:22:42.330Z,6.77
2017-06-11T03:25:10.459Z,8.07
2017-06-11T03:27:38.575Z,7.07
2017-06-11T03:30:06.684Z,6.43
2017-06-11T03:32:34.844Z,6.67
2017-06-11T03:35:02.953Z,6.57
2017-06-11T03:37:31.073Z,7.10
2017-06-11T03:39:59.175Z,6.50
2017-06-11T03:42:27.290Z,7.17
2017-06-11T03:44:55.414Z,6.40
2017-06-11T03:47:25.491Z,5.80
2017-06-11T03:49:58.972Z,5.77
2017-06-11T03:52:28.067Z,5.13
2017-06-11T03:54:56.270Z,5.47
2017-06-11T03:57:24.371Z,5.30
2017-06-11T03:59:52.503Z,5.10
2017-06-11T04:02:20.621Z,5.30
2017-06-11T04:04:49.691Z,5.10
2017-06-11T04:07:17.804Z,5.17
2017-06-11T04:09:45.911Z,5.37
2017-06-11T04:12:21.387Z,5.57
2017-06-11T04:17:56.390Z,4.50
2017-06-11T04:20:24.492Z,4.83
2017-06-11T04:22:52.614Z,4.37
2017-06-11T04:25:20.724Z,3.83
2017-06-11T04:27:48.830Z,4.37
2017-06-11T04:30:16.945Z,4.40
2017-06-11T04:32:45.050Z,4.13
2017-06-11T04:35:13.695Z,4.17
2017-06-11T04:37:41.818Z,4.20
2017-06-11T04:40:13.861Z,3.97
2017-06-11T04:42:41.951Z,3.80
2017-06-11T04:45:10.065Z,4.50
2017-06-11T04:47:38.167Z,4.10
2017-06-11T04:50:07.179Z,4.10
2017-06-11T04:52:35.315Z,3.73
2017-06-11T04:55:03.419Z,4.00
2017-06-11T04:57:36.401Z,3.83
2017-06-11T05:00:04.529Z,4.30
2017-06-11T05:02:32.684Z,4.27
2017-06-11T05:05:00.779Z,4.20
2017-06-11T05:07:52.703Z,3.80
2017-06-11T05:10:27.929Z,4.40
2017-06-11T05:12:56.053Z,3.20
2017-06-11T05:15:24.147Z,3.50
2017-06-11T05:17:52.248Z,3.77
2017-06-11T05:20:20.363Z,3.57
2017-06-11T05:22:48.462Z,3.90
2017-06-11T05:25:16.602Z,3.43
2017-06-11T05:27:45.553Z,2.87
2017-06-11T05:30:13.765Z,4.00
2017-06-11T05:32:42.634Z,3.33
2017-06-11T05:35:32.456Z,3.40
2017-06-11T05:38:05.858Z,3.23
2017-06-11T05:40:33.982Z,3.40
2017-06-11T05:43:08.138Z,3.40
2017-06-11T05:45:36.283Z,3.60
2017-06-11T05:48:04.374Z,2.90
2017-06-11T05:50:46.687Z,3.10
2017-06-11T05:53:14.825Z,2.90
2017-06-11T05:55:42.902Z,3.70
2017-06-11T05:58:15.898Z,3.13
2017-06-11T06:00:43.977Z,3.23
2017-06-11T06:03:12.095Z,3.10
2017-06-11T06:05:42.135Z,3.20
2017-06-11T06:08:20.478Z,3.17
2017-06-11T06:10:49.671Z,2.93
2017-06-11T06:13:17.742Z,3.07
2017-06-11T06:15:46.050Z,4.73
2017-06-11T06:18:14.144Z,3.10
2017-06-11T06:20:42.377Z,3.83
2017-06-11T06:23:11.394Z,2.57
2017-06-11T06:25:39.532Z,2.60
2017-06-11T06:28:08.535Z,2.77
2017-06-11T06:30:36.663Z,3.03
2017-06-11T06:33:05.186Z,2.80
2017-06-11T06:35:33.296Z,2.80
2017-06-11T06:38:01.405Z,2.70
2017-06-11T06:40:29.516Z,2.83
2017-06-11T06:43:04.456Z,3.10
2017-06-11T06:45:32.616Z,2.73
2017-06-11T06:48:01.722Z,2.23
2017-06-11T06:50:41.388Z,2.60
2017-06-11T06:53:14.301Z,2.70
2017-06-11T06:55:50.490Z,2.70
2017-06-11T06:58:22.498Z,2.00
2017-06-11T07:00:50.599Z,2.13
2017-06-11T07:03:18.689Z,2.40
2017-06-11T07:05:47.776Z,2.27
2017-06-11T07:08:16.471Z,2.77
2017-06-11T07:10:44.595Z,2.30
2017-06-11T07:13:12.699Z,2.10
2017-06-11T07:15:42.783Z,2.47
2017-06-11T07:18:11.515Z,2.47
2017-06-11T07:20:41.530Z,2.13
2017-06-11T07:23:11.589Z,2.40
2017-06-11T07:25:39.703Z,2.40
2017-06-11T07:28:07.839Z,1.90
2017-06-11T07:30:56.375Z,2.00
2017-06-11T07:33:24.484Z,2.63
2017-06-11T07:35:56.538Z,2.43
2017-06-11T07:38:24.674Z,2.47
2017-06-11T07:40:52.774Z,2.20
2017-06-11T07:43:20.888Z,2.27
2017-06-11T07:45:49.029Z,2.00
2017-06-11T07:48:18.138Z,2.50
2017-06-11T07:50:46.842Z,2.20
2017-06-11T07:53:15.981Z,2.20
2017-06-11T07:55:44.106Z,2.30
2017-06-11T07:58:13.228Z,2.30
2017-06-11T08:00:41.387Z,2.07
2017-06-11T08:03:09.515Z,2.60
2017-06-11T08:05:37.635Z,3.10
2017-06-11T08:08:07.684Z,2.40
2017-06-11T08:10:35.941Z,2.67
2017-06-11T08:13:04.042Z,2.33
2017-06-11T08:15:33.246Z,2.40
2017-06-11T08:18:01.356Z,2.77
2017-06-11T08:20:29.469Z,3.67
2017-06-11T08:23:00.596Z,2.63
2017-06-11T08:25:28.824Z,2.83
2017-06-11T08:27:56.928Z,2.63
2017-06-11T08:30:25.047Z,2.43
2017-06-11T08:32:55.424Z,2.80
2017-06-11T08:35:30.732Z,2.87
2017-06-11T08:38:04.590Z,3.20
2017-06-11T08:40:47.740Z,2.50
2017-06-11T08:43:16.773Z,2.30
2017-06-11T08:45:51.173Z,2.50
2017-06-11T08:48:19.409Z,2.43
2017-06-11T08:50:47.546Z,2.60
2017-06-11T08:53:15.681Z,2.30
2017-06-11T08:55:43.769Z,2.17
2017-06-11T08:58:11.923Z,2.40
2017-06-11T09:00:48.292Z,2.20
2017-06-11T09:03:26.891Z,3.80
2017-06-11T09:05:55.888Z,4.43
2017-06-11T09:08:23.981Z,2.53
2017-06-11T09:10:53.012Z,2.83
2017-06-11T09:13:21.169Z,2.77
2017-06-11T09:15:49.268Z,2.50
2017-06-11T09:18:18.307Z,2.10
2017-06-11T09:20:46.423Z,2.73
2017-06-11T09:23:14.518Z,2.47
2017-06-11T09:25:42.635Z,2.53
2017-06-11T09:28:10.739Z,2.30
2017-06-11T09:30:52.151Z,3.23
2017-06-11T09:33:21.171Z,3.10
2017-06-11T09:35:52.731Z,4.13
2017-06-11T09:38:21.541Z,3.47
2017-06-11T09:40:51.219Z,2.80
2017-06-11T09:43:19.342Z,2.63
2017-06-11T09:45:51.195Z,2.80
2017-06-11T09:48:20.450Z,2.33
2017-06-11T09:50:48.660Z,3.13
2017-06-11T09:53:16.788Z,2.80
2017-06-11T09:55:44.891Z,2.90
2017-06-11T09:58:13.927Z,3.40
2017-06-11T10:00:51.663Z,3.43
2017-06-11T10:03:21.714Z,2.37
2017-06-11T10:05:49.833Z,2.93
2017-06-11T10:08:17.915Z,3.13
2017-06-11T10:10:46.028Z,3.00
2017-06-11T10:13:14.129Z,3.47
2017-06-11T10:15:42.995Z,2.97
2017-06-11T10:18:11.103Z,2.90
2017-06-11T10:20:39.239Z,2.70
2017-06-11T10:23:13.389Z,2.90
2017-06-11T10:25:41.526Z,2.30
2017-06-11T10:28:09.645Z,2.30
2017-06-11T10:30:37.803Z,2.10
2017-06-11T10:33:05.944Z,2.17
2017-06-11T10:35:35.023Z,2.00
2017-06-11T10:38:03.166Z,2.23
2017-06-11T10:40:31.279Z,3.20
2017-06-11T10:43:00.074Z,2.80
2017-06-11T10:45:28.203Z,2.20
2017-06-11T10:47:57.280Z,2.13
2017-06-11T10:50:28.458Z,2.17
2017-06-11T10:52:56.609Z,2.37
2017-06-11T10:55:27.168Z,2.30
2017-06-11T10:57:56.229Z,1.70
2017-06-11T11:00:24.351Z,2.33
2017-06-11T11:02:52.451Z,2.00
2017-06-11T11:05:20.554Z,2.30
2017-06-11T11:07:49.541Z,2.13
2017-06-11T11:10:17.646Z,2.37
2017-06-11T11:12:51.695Z,2.30
2017-06-11T11:15:26.458Z,2.30
2017-06-11T11:17:54.587Z,1.90
2017-06-11T11:20:22.702Z,2.50
2017-06-11T11:23:01.494Z,2.70
2017-06-11T11:25:35.071Z,2.60
2017-06-11T11:28:04.152Z,2.27
2017-06-11T11:30:32.285Z,2.23
2017-06-11T11:33:00.489Z,3.03
2017-06-11T11:35:34.464Z,2.30
2017-06-11T11:38:02.554Z,2.63
2017-06-11T11:40:30.748Z,2.00
2017-06-11T11:42:58.854Z,2.43
2017-06-11T11:45:27.386Z,3.00
2017-06-11T11:47:55.548Z,2.30
2017-06-11T11:50:23.650Z,2.30
2017-06-11T11:52:55.366Z,2.03
2017-06-11T11:55:31.406Z,3.60
2017-06-11T11:57:59.630Z,2.30
2017-06-11T12:00:27.705Z,2.00
2017-06-11T12:02:55.815Z,2.53
2017-06-11T12:05:23.922Z,1.90
2017-06-11T12:07:52.963Z,2.40
2017-06-11T12:10:21.077Z,2.47
2017-06-11T12:12:49.205Z,2.30
2017-06-11T12:15:17.338Z,2.13
2017-06-11T12:17:45.510Z,2.97
2017-06-11T12:20:13.666Z,2.33
2017-06-11T12:22:41.797Z,2.47
2017-06-11T12:25:10.232Z,2.53
2017-06-11T12:27:38.359Z,2.53
2017-06-11T12:30:08.513Z,2.63
2017-06-11T12:32:36.703Z,2.20
2017-06-11T12:35:12.286Z,2.20
2017-06-11T12:37:40.482Z,2.37
2017-06-11T12:40:08.629Z,1.80
2017-06-11T12:42:37.713Z,2.60
2017-06-11T12:45:05.847Z,2.67
2017-06-11T12:47:34.041Z,2.90
2017-06-11T12:50:02.228Z,2.57
2017-06-11T12:52:30.338Z,2.27
2017-06-11T12:54:58.462Z,2.60
2017-06-11T12:57:33.853Z,1.90
2017-06-11T13:00:02.911Z,2.10
2017-06-11T13:02:32.039Z,2.17
2017-06-11T13:05:00.219Z,1.60
2017-06-11T13:07:28.517Z,2.10
2017-06-11T13:09:56.609Z,2.10
2017-06-11T13:12:24.714Z,2.40
2017-06-11T13:14:52.830Z,1.70
2017-06-11T13:17:27.935Z,2.23
2017-06-11T13:19:56.147Z,2.17
2017-06-11T13:22:24.378Z,2.30
2017-06-11T13:24:53.506Z,1.70
2017-06-11T13:27:22.431Z,2.30
2017-06-11T13:29:50.531Z,2.50
2017-06-11T13:32:18.634Z,2.10
2017-06-11T13:34:51.514Z,2.17
2017-06-11T13:37:20.934Z,2.00
2017-06-11T13:39:49.064Z,2.07
2017-06-11T13:42:17.775Z,2.43
2017-06-11T13:44:45.911Z,2.10
2017-06-11T13:47:14.026Z,1.97
2017-06-11T13:49:45.229Z,2.30
2017-06-11T13:52:16.866Z,2.40
2017-06-11T13:54:48.490Z,2.03
2017-06-11T13:57:26.646Z,2.37
2017-06-11T13:59:56.835Z,4.60
2017-06-11T14:02:28.190Z,3.20
2017-06-11T14:04:56.339Z,3.03
2017-06-11T14:07:24.430Z,2.97
2017-06-11T14:09:52.588Z,1.90
2017-06-11T14:12:20.702Z,2.47
2017-06-11T14:14:48.842Z,2.30
2017-06-11T14:17:16.994Z,2.20
2017-06-11T14:19:45.140Z,2.10
2017-06-11T14:22:13.284Z,2.20
2017-06-11T14:24:43.365Z,2.50
2017-06-11T14:27:12.003Z,1.73
2017-06-11T14:29:40.239Z,2.40
2017-06-11T14:32:08.366Z,2.20
2017-06-11T14:34:36.498Z,2.10
2017-06-11T14:37:04.670Z,2.57
2017-06-11T14:39:32.790Z,1.63
2017-06-11T14:42:12.514Z,2.27
2017-06-11T14:44:40.635Z,2.03
2017-06-11T14:47:08.721Z,1.67
2017-06-11T14:49:36.850Z,1.77
2017-06-11T14:52:04.940Z,2.13
2017-06-11T14:57:32.961Z,2.30
2017-06-11T15:00:01.072Z,1.90
2017-06-11T15:02:29.200Z,2.00
2017-06-11T15:04:57.367Z,2.30
2017-06-11T15:07:27.431Z,2.47
2017-06-11T15:09:57.475Z,2.20
2017-06-11T15:12:31.427Z,1.77
2017-06-11T15:15:03.551Z,2.23
2017-06-11T15:17:31.678Z,2.00
2017-06-11T15:20:00.936Z,1.80
2017-06-11T15:22:29.058Z,1.70
2017-06-11T15:24:57.216Z,2.00
2017-06-11T15:27:25.656Z,2.00
2017-06-11T15:29:54.699Z,2.10
2017-06-11T15:32:22.826Z,1.80
2017-06-11T15:34:58.798Z,2.70
2017-06-11T15:37:27.440Z,2.17
2017-06-11T15:40:02.187Z,2.30
2017-06-11T15:42:32.174Z,2.53
2017-06-11T15:45:00.296Z,2.63
2017-06-11T15:50:34.270Z,3.03
2017-06-11T15:53:07.614Z,2.10
2017-06-11T15:55:36.736Z,2.87
2017-06-11T16:01:11.991Z,2.43
2017-06-11T16:03:40.200Z,2.57
2017-06-11T16:06:08.302Z,2.50
2017-06-11T16:08:36.430Z,2.57
2017-06-11T16:11:05.541Z,2.47
2017-06-11T16:13:33.651Z,2.30
2017-06-11T16:16:01.766Z,2.37
2017-06-11T16:18:29.866Z,2.53
2017-06-11T16:20:58.118Z,2.50
2017-06-11T16:23:26.247Z,4.20
2017-06-11T16:25:55.440Z,2.67
2017-06-11T16:28:23.520Z,2.47
2017-06-11T16:30:51.614Z,2.87
2017-06-11T16:33:23.682Z,3.53
2017-06-11T16:35:52.378Z,2.47
2017-06-11T16:38:20.513Z,2.83
2017-06-11T16:40:48.710Z,2.57
2017-06-11T16:43:17.631Z,2.80
2017-06-11T16:45:53.506Z,2.70
2017-06-11T16:48:22.665Z,2.90
2017-06-11T16:50:57.562Z,2.67
2017-06-11T16:53:37.217Z,3.17
2017-06-11T16:56:22.929Z,3.03
2017-06-11T17:01:49.113Z,3.43
2017-06-11T17:04:17.318Z,3.03
2017-06-11T17:06:45.441Z,2.07
2017-06-11T17:09:18.736Z,2.70
2017-06-11T17:11:48.830Z,2.60
2017-06-11T17:14:16.967Z,2.80
2017-06-11T17:16:45.057Z,2.60
2017-06-11T17:19:13.164Z,3.50
2017-06-11T17:21:42.305Z,3.10
2017-06-11T17:24:12.365Z,4.80
2017-06-11T17:26:46.153Z,3.37
2017-06-11T17:29:14.268Z,3.90
2017-06-11T17:31:53.121Z,4.10
2017-06-11T17:34:25.053Z,4.43
2017-06-11T17:36:53.193Z,5.27
2017-06-11T17:39:21.280Z,4.70
2017-06-11T17:41:49.512Z,4.70
2017-06-11T17:44:21.410Z,4.73
2017-06-11T17:46:49.751Z,4.37
2017-06-11T17:49:22.569Z,5.13
2017-06-11T17:51:50.712Z,4.70
2017-06-11T17:54:33.905Z,4.83
2017-06-11T17:57:02.042Z,4.47
2017-06-11T17:59:35.714Z,4.03
2017-06-11T18:02:05.859Z,4.50
2017-06-11T18:04:39.859Z,4.93
2017-06-11T18:07:09.579Z,4.80
2017-06-11T18:09:42.986Z,3.60
2017-06-11T18:12:11.138Z,3.43
2017-06-11T18:14:39.287Z,3.60
2017-06-11T18:17:07.389Z,3.20
2017-06-11T18:19:39.859Z,3.13
2017-06-11T18:22:07.974Z,2.93
2017-06-11T18:24:36.104Z,3.70
2017-06-11T18:27:06.245Z,3.40
2017-06-11T18:29:34.449Z,3.40
2017-06-11T18:32:04.512Z,4.17
2017-06-11T18:34:33.671Z,4.40
2017-06-11T18:37:03.913Z,4.60
2017-06-11T18:39:32.001Z,3.73
2017-06-11T18:42:00.111Z,4.23
2017-06-11T18:44:30.597Z,3.90
2017-06-11T18:46:58.675Z,4.60
2017-06-11T18:49:26.891Z,4.13
2017-06-11T18:51:55.018Z,4.30
2017-06-11T18:54:24.076Z,3.63
2017-06-11T18:56:54.143Z,3.40
2017-06-11T18:59:22.361Z,3.97
2017-06-11T19:01:50.718Z,3.20
2017-06-11T19:04:18.842Z,3.30
2017-06-11T19:06:47.429Z,3.43
2017-06-11T19:09:15.571Z,3.07
2017-06-11T19:11:45.743Z,3.00
2017-06-11T19:14:21.955Z,3.50
2017-06-11T19:16:50.111Z,3.97
2017-06-11T19:19:18.264Z,3.20
2017-06-11T19:21:46.374Z,3.17
2017-06-11T19:24:14.570Z,2.73
2017-06-11T19:26:42.996Z,3.50
2017-06-11T19:32:20.632Z,2.77
2017-06-11T19:34:50.993Z,2.57
2017-06-11T19:37:19.137Z,3.00
2017-06-11T19:39:47.273Z,2.60
2017-06-11T19:42:18.016Z,2.90
2017-06-11T19:44:49.957Z,3.43
2017-06-11T19:47:26.286Z,3.63
2017-06-11T19:49:54.418Z,3.77
2017-06-11T19:52:22.614Z,3.97
2017-06-11T19:54:50.769Z,3.80
2017-06-11T19:57:38.180Z,2.93
2017-06-11T20:00:06.291Z,2.97
2017-06-11T20:02:41.150Z,3.33
2017-06-11T20:05:09.266Z,3.80
2017-06-11T20:07:37.439Z,4.10
2017-06-11T20:10:09.457Z,3.83
2017-06-11T20:12:37.587Z,3.80
2017-06-11T20:15:05.764Z,4.10
2017-06-11T20:17:33.855Z,3.80
2017-06-11T20:20:13.904Z,4.03
2017-06-11T20:22:47.492Z,4.20
2017-06-11T20:25:15.633Z,3.80
2017-06-11T20:27:43.807Z,4.07
2017-06-11T20:30:12.918Z,4.83
2017-06-11T20:32:41.157Z,4.57
2017-06-11T20:35:09.310Z,4.80
2017-06-11T20:40:33.658Z,4.80
2017-06-11T20:43:05.806Z,4.27
2017-06-11T20:45:41.286Z,4.80
2017-06-11T20:48:10.012Z,4.37
2017-06-11T20:50:40.354Z,4.30
2017-06-11T20:59:05.637Z,4.90
2017-06-11T21:01:33.801Z,5.40
2017-06-11T21:04:01.901Z,4.77
2017-06-11T21:06:30.458Z,4.57
2017-06-11T21:09:06.005Z,4.70
2017-06-11T21:11:34.125Z,5.23
2017-06-11T21:14:02.226Z,5.03
2017-06-11T21:16:30.337Z,4.60
2017-06-11T21:18:59.042Z,5.00
2017-06-11T21:21:27.154Z,5.07
2017-06-11T21:23:55.729Z,4.90
2017-06-11T21:26:23.834Z,4.83
2017-06-11T21:28:52.494Z,4.00
2017-06-11T21:31:20.602Z,5.00
2017-06-11T21:33:48.767Z,4.60
2017-06-11T21:36:16.914Z,4.10
2017-06-11T21:38:45.021Z,4.87
2017-06-11T21:41:13.123Z,4.57
2017-06-11T21:43:41.226Z,4.17
2017-06-11T21:46:09.329Z,4.37
2017-06-11T21:48:37.466Z,4.80
2017-06-11T21:51:05.566Z,4.97
2017-06-11T21:53:33.699Z,4.20
2017-06-11T21:56:01.972Z,4.50
2017-06-11T21:58:30.055Z,4.60
2017-06-11T22:01:01.141Z,4.43
2017-06-11T22:03:31.063Z,4.90
2017-06-11T22:05:59.130Z,4.27
2017-06-11T22:08:27.282Z,4.30
2017-06-11T22:10:55.375Z,4.23
2017-06-11T22:13:23.481Z,4.23
2017-06-11T22:15:57.846Z,3.90
2017-06-11T22:18:26.777Z,3.60
2017-06-11T22:20:57.442Z,3.97
2017-06-11T22:23:25.555Z,3.57
2017-06-11T22:25:53.646Z,3.50
2017-06-11T22:28:21.813Z,3.97
2017-06-11T22:31:02.266Z,3.97
2017-06-11T22:36:43.893Z,3.90
2017-06-11T22:39:27.591Z,4.60
2017-06-11T22:41:56.776Z,5.00
2017-06-11T22:44:24.882Z,4.80
2017-06-11T22:46:52.978Z,5.00
2017-06-11T22:49:21.086Z,6.03
2017-06-11T22:51:49.196Z,5.60
2017-06-11T22:54:17.329Z,5.90
2017-06-11T22:56:45.430Z,5.93
2017-06-11T22:59:13.568Z,5.90
2017-06-11T23:01:41.684Z,6.20
2017-06-11T23:04:20.593Z,6.50
2017-06-11T23:06:53.129Z,6.07
2017-06-11T23:09:22.145Z,7.47
2017-06-11T23:11:50.250Z,6.60
2017-06-11T23:14:18.350Z,6.53
2017-06-11T23:16:46.467Z,6.00
2017-06-11T23:19:14.570Z,6.87
2017-06-11T23:21:42.678Z,7.23
2017-06-11T23:24:10.777Z,6.70
2017-06-11T23:26:38.865Z,7.43
2017-06-11T23:29:06.978Z,6.80
2017-06-11T23:31:35.082Z,8.20
2017-06-11T23:34:03.234Z,7.83
2017-06-11T23:36:31.349Z,8.13
2017-06-11T23:38:59.442Z,8.47
2017-06-11T23:41:27.561Z,7.97
2017-06-11T23:43:55.671Z,7.43
2017-06-11T23:46:24.202Z,8.10
2017-06-11T23:48:52.309Z,7.70
2017-06-11T23:51:20.476Z,7.30
2017-06-11T23:53:49.111Z,8.17
2017-06-11T23:56:17.255Z,7.53
2017-06-11T23:58:45.386Z,8.17
